Home   Weather   Netherlands   Eindhoven   Past weeks
Flag for Netherlands

Past Weather in Eindhoven, Netherlands — Yesterday and Last 2 Weeks

Currently: 70 °F. Overcast. (Weather station: Eindhoven Airport, Netherlands). See more current weather

Past Weather in Eindhoven — Graph

°F

Eindhoven Temperature Yesterday

Maximum temperature yesterday: 64 °F (at 1:17 pm)
Minimum temperature yesterday: 52 °F (at 11:55 pm)
Average temperature yesterday: 58 °F

High & Low Weather Summary for the Past Weeks

 TemperatureHumidityPressure
High88 °F (Jul 9, 4:25 pm)100% (Jun 30, 6:56 am)30.07 "Hg (Jun 30, 6:56 am)
Low46 °F (Jul 3, 3:25 am)38% (Jul 9, 4:25 pm)29.50 "Hg (Jul 6, 8:25 am)
Average62 °F78%29.88 "Hg
* Reported Jun 29 6:25 pm — Jul 14 6:55 pm, Eindhoven. Weather by CustomWeather, © 2024

Note: Actual official high and low records may vary slightly from our data, if they occured in-between our weather recording intervals... More about our weather records

Eindhoven Weather History for the Previous 24 Hours

Scroll right to see more
 ConditionsComfort  
Time TempWeatherWind HumidityBarometerVisibility
6:55 pm
Sun, Jul 14
70 °FOvercast.10 mph57%29.89 "HgN/A
6:25 pm72 °FOvercast.8 mph53%29.89 "HgN/A
5:25 pm70 °FOvercast.10 mph53%29.89 "HgN/A
4:55 pm70 °FMostly cloudy.10 mph53%29.89 "HgN/A
4:25 pm70 °FBroken clouds.10 mph53%29.89 "HgN/A
3:25 pm72 °FScattered clouds.13 mph47%29.89 "HgN/A
2:55 pm70 °FScattered clouds.13 mph50%29.89 "HgN/A
1:55 pm72 °FBroken clouds.13 mph50%29.89 "HgN/A
1:25 pm72 °FScattered clouds.13 mph50%29.89 "HgN/A
12:55 pm70 °FPassing clouds.14 mph53%29.89 "HgN/A
12:25 pm70 °FScattered clouds.15 mph57%29.89 "HgN/A
11:55 am68 °FPassing clouds.15 mph60%29.89 "HgN/A
10:55 am66 °FPassing clouds.13 mph60%29.92 "HgN/A
10:25 am66 °FClear.10 mph60%29.92 "HgN/A
9:55 am64 °FClear.10 mph68%29.92 "HgN/A
9:25 am63 °FClear.9 mph73%29.92 "HgN/A
8:55 am61 °FClear.7 mph83%29.89 "HgN/A
8:25 am57 °FPartly sunny.6 mph88%29.89 "HgN/A
7:55 am55 °FMostly cloudy.5 mph94%29.89 "HgN/A
7:25 am55 °FMostly cloudy.3 mph94%29.89 "HgN/A
6:55 am54 °FOvercast.5 mph94%29.89 "HgN/A
6:33 am54 °FMostly cloudy.5 mph94%29.89 "HgN/A
5:55 am50 °FOvercast.3 mph100%29.89 "HgN/A
5:25 am50 °FOvercast.2 mph100%29.89 "HgN/A
4:55 am50 °FOvercast.3 mph100%29.89 "HgN/A
4:25 am50 °FOvercast.2 mph94%29.89 "HgN/A
3:55 am48 °FOvercast.3 mph100%29.89 "HgN/A
3:25 am48 °FClear.2 mph100%29.92 "HgN/A
2:25 am50 °FPassing clouds.2 mph100%29.92 "HgN/A
1:55 am52 °FClear.1 mph94%29.92 "HgN/A
1:25 am50 °FClear.1 mph100%29.92 "HgN/A
12:55 am52 °FClear.1 mph94%29.92 "HgN/A
12:25 am50 °FClear.2 mph100%29.92 "HgN/A
11:55 pm
Sat, Jul 13
52 °FPassing clouds.2 mph94%29.92 "HgN/A
11:25 pm54 °FClear.2 mph94%29.92 "HgN/A
10:58 pm54 °FClear.5 mph94%29.92 "HgN/A
10:29 pm55 °FFog.3 mph82%29.92 "Hg3 mi
9:55 pm55 °FClear.5 mph82%29.92 "HgN/A
8:55 pm61 °FOvercast.7 mph68%29.92 "HgN/A
8:25 pm61 °FOvercast.12 mph68%29.92 "HgN/A
Weather by CustomWeather, © 2024

See weather overview